Airfield :







YOU CAN JOIN US ON...

 
LOGIN :

Register | Disclaimer

   EN    FR    IT 

 









Legend :    VFR   Marginal VFR   IFR   Intensive IFR   Very Intensive IFR
Visi :
Ceiling :
>= 8 km
>= 3000ft
5 to 8 km
1000 to 3000 ft
1500m to 5 km
500 to 1000 ft
800 to 1500m
200 to 500 ft
< 800m
< 200 ft
Symbols :   Thunderstorms  Fog  Heavy snow  Heavy precipitations  Wind > 20 kt






- Airport Elevation : 215 ft
- IATA code : MSS


KMSS - Massena International Richards Field

CURRENT METAR :
  • 070953Z AUTO 21008KT 10SM CLR 14/10 A2985 RMK AO2 SLP108 T01390100

EXPIRED METARs :
  • 070853Z AUTO 18006KT 10SM FEW100 12/09 A2984 RMK AO2 SLP106 60000 T01220089 57009
  • 070753Z AUTO 19003KT 10SM FEW090 13/09 A2985 RMK AO2 SLP108 T01280094

TAF KMSS
Valid from the 07 at 06:00 until the 08 at 06:00 UTC


070528Z 0706/0806 19007KT P6SM OVC090
FM071200 24008KT P6SM VCSH BKN025
TEMPO 0713/0716 4SM -SHRA BR OVC012
FM071600 27011G17KT P6SM VCSH BKN012
FM071800 29013G20KT P6SM BKN020
FM080200 27008KT P6SM BKN030
KZBW FIR / North America



MET'MAP, your aeronautical weather chart ! - Copyright ORBIFLY December 2007 - Disclaimer

ORBIFLY MET'MAP TEAM :

Programming & Development : Alexandra Zaïnal
Original concept : Baudouin d'Aumeries
Technical & hardware support : Manuel Goepfert
Assistance : Marc-Olivier Méhu




SOURCES & CREDITS :

   NOAA